createdAt,value
2022-10-01T00:00:36.994Z,71.30
2022-10-01T00:03:03.633Z,71.19
2022-10-01T00:05:30.130Z,71.48
2022-10-01T00:07:56.647Z,71.40
2022-10-01T00:10:23.945Z,71.34
2022-10-01T00:12:50.378Z,71.51
2022-10-01T00:15:17.400Z,71.30
2022-10-01T00:17:43.796Z,71.25
2022-10-01T00:20:14.492Z,70.75
2022-10-01T00:22:41.486Z,70.56
2022-10-01T00:25:08.428Z,70.71
2022-10-01T00:27:35.785Z,71.17
2022-10-01T00:30:06.747Z,71.15
2022-10-01T00:32:34.724Z,72.37
2022-10-01T00:35:02.915Z,72.88
2022-10-01T00:37:29.321Z,73.10
2022-10-01T00:39:55.703Z,74.01
2022-10-01T00:42:26.847Z,75.43
2022-10-01T00:44:54.044Z,76.68
2022-10-01T00:47:28.962Z,77.82
2022-10-01T00:50:06.989Z,78.78
2022-10-01T00:52:36.127Z,79.97
2022-10-01T00:55:12.132Z,81.06
2022-10-01T00:57:39.667Z,82.87
2022-10-01T01:00:08.379Z,83.92
2022-10-01T01:02:34.924Z,84.51
2022-10-01T01:05:02.213Z,85.54
2022-10-01T01:07:33.495Z,86.18
2022-10-01T01:10:02.072Z,86.45
2022-10-01T01:12:49.463Z,86.97
2022-10-01T01:15:52.673Z,87.30
2022-10-01T01:18:30.198Z,87.95
2022-10-01T01:21:21.696Z,88.01
2022-10-01T01:24:09.799Z,88.50
2022-10-01T01:26:49.363Z,88.74
2022-10-01T01:29:50.213Z,89.28
2022-10-01T01:32:25.525Z,89.55
2022-10-01T01:35:09.306Z,89.99
2022-10-01T01:37:40.102Z,90.39
2022-10-01T01:40:11.265Z,90.88
2022-10-01T01:42:41.793Z,91.27
2022-10-01T01:45:13.613Z,91.16
2022-10-01T01:47:42.626Z,91.21
2022-10-01T01:50:10.904Z,91.28
2022-10-01T01:52:38.371Z,91.45
2022-10-01T01:55:08.495Z,91.58
2022-10-01T01:57:42.347Z,91.61
2022-10-01T02:00:10.589Z,91.55
2022-10-01T02:02:39.504Z,91.74
2022-10-01T02:05:15.893Z,91.89
2022-10-01T02:08:21.363Z,92.07
2022-10-01T02:11:14.655Z,92.01
2022-10-01T02:13:50.342Z,92.10
2022-10-01T02:16:22.950Z,92.05
2022-10-01T02:19:00.753Z,91.78
2022-10-01T02:21:47.290Z,92.02
2022-10-01T02:24:25.706Z,92.01
2022-10-01T02:26:55.466Z,92.07
2022-10-01T02:29:24.930Z,92.14
2022-10-01T02:31:55.863Z,92.28
2022-10-01T02:34:29.070Z,92.29
2022-10-01T02:36:57.708Z,92.42
2022-10-01T02:39:29.366Z,92.63
2022-10-01T02:42:00.595Z,92.15
2022-10-01T02:44:42.343Z,92.58
2022-10-01T02:47:19.515Z,92.65
2022-10-01T02:49:47.034Z,92.73
2022-10-01T02:52:24.474Z,93.17
2022-10-01T02:55:00.540Z,93.36
2022-10-01T02:57:27.806Z,93.71
2022-10-01T03:00:00.222Z,93.91
2022-10-01T03:02:31.941Z,94.08
2022-10-01T03:05:05.357Z,94.33
2022-10-01T03:07:36.696Z,94.62
2022-10-01T03:10:05.223Z,94.83
2022-10-01T03:12:32.037Z,94.95
2022-10-01T03:14:58.566Z,94.98
2022-10-01T03:17:25.089Z,95.12
2022-10-01T03:19:54.695Z,95.19
2022-10-01T03:22:25.177Z,95.31
2022-10-01T03:24:52.913Z,95.38
2022-10-01T03:27:23.860Z,95.49
2022-10-01T03:29:51.841Z,95.48
2022-10-01T03:32:19.133Z,95.68
2022-10-01T03:34:47.227Z,95.73
2022-10-01T03:37:14.273Z,95.91
2022-10-01T03:39:40.656Z,96.00
2022-10-01T03:42:07.219Z,96.12
2022-10-01T03:44:37.277Z,96.21
2022-10-01T03:47:04.939Z,96.22
2022-10-01T03:49:31.456Z,96.35
2022-10-01T03:51:59.225Z,96.40
2022-10-01T03:54:26.240Z,96.46
2022-10-01T03:56:52.767Z,96.44
2022-10-01T03:59:21.825Z,96.47
2022-10-01T04:01:48.757Z,96.44
2022-10-01T04:04:15.628Z,96.40
2022-10-01T04:06:42.407Z,96.41
2022-10-01T04:09:09.679Z,96.40
2022-10-01T04:11:39.549Z,96.39
2022-10-01T04:14:06.005Z,96.41
2022-10-01T04:16:36.066Z,96.37
2022-10-01T04:19:06.403Z,96.35
2022-10-01T04:21:33.515Z,96.31
2022-10-01T04:24:05.233Z,96.23
2022-10-01T04:26:32.024Z,96.01
2022-10-01T04:28:58.775Z,95.90
2022-10-01T04:31:25.347Z,95.89
2022-10-01T04:33:55.772Z,96.02
2022-10-01T04:36:26.020Z,96.05
2022-10-01T04:38:58.046Z,95.93
2022-10-01T04:41:27.589Z,95.81
2022-10-01T04:43:54.060Z,95.48
2022-10-01T04:46:20.681Z,95.31
2022-10-01T04:48:49.889Z,95.11
2022-10-01T04:51:17.528Z,94.55
2022-10-01T04:53:43.975Z,94.58
2022-10-01T04:56:11.443Z,94.15
2022-10-01T04:58:38.589Z,93.47
2022-10-01T05:01:09.657Z,92.47
2022-10-01T05:03:36.171Z,92.43
2022-10-01T05:06:03.103Z,92.21
2022-10-01T05:08:29.646Z,91.54
2022-10-01T05:11:01.245Z,91.07
2022-10-01T05:13:29.914Z,91.58
2022-10-01T05:15:56.569Z,91.51
2022-10-01T05:18:23.134Z,91.60
2022-10-01T05:20:51.349Z,91.03
2022-10-01T05:23:18.299Z,90.69
2022-10-01T05:25:47.258Z,90.92
2022-10-01T05:28:17.237Z,91.28
2022-10-01T05:30:47.901Z,91.67
2022-10-01T05:33:14.453Z,91.98
2022-10-01T05:35:41.231Z,92.08
2022-10-01T05:38:07.611Z,92.58
2022-10-01T05:40:33.965Z,92.90
2022-10-01T05:43:01.985Z,92.86
2022-10-01T05:45:29.989Z,92.88
2022-10-01T05:48:05.898Z,92.59
2022-10-01T05:50:34.946Z,92.81
2022-10-01T05:53:02.358Z,92.94
2022-10-01T05:55:33.284Z,92.90
2022-10-01T05:58:09.629Z,92.75
2022-10-01T06:00:37.146Z,92.92
2022-10-01T06:03:05.123Z,92.65
2022-10-01T06:05:33.690Z,92.19
2022-10-01T06:08:00.903Z,92.48
2022-10-01T06:10:30.085Z,92.34
2022-10-01T06:13:05.472Z,92.46
2022-10-01T06:15:34.517Z,92.21
2022-10-01T06:18:05.670Z,92.30
2022-10-01T06:20:32.880Z,92.12
2022-10-01T06:22:59.741Z,92.11
2022-10-01T06:25:30.650Z,92.31
2022-10-01T06:27:59.664Z,91.73
2022-10-01T06:32:36.427Z,91.00
2022-10-01T06:35:03.663Z,91.18
2022-10-01T06:37:30.079Z,90.62
2022-10-01T06:39:56.460Z,90.65
2022-10-01T06:42:23.034Z,90.44
2022-10-01T06:44:49.382Z,90.59
2022-10-01T06:47:15.812Z,90.25
2022-10-01T06:49:47.381Z,90.39
2022-10-01T06:52:33.360Z,90.26
2022-10-01T06:55:01.672Z,90.35
2022-10-01T06:57:28.791Z,89.61
2022-10-01T06:59:55.703Z,89.92
2022-10-01T07:02:32.278Z,90.06
2022-10-01T07:04:59.269Z,90.02
2022-10-01T07:07:37.558Z,90.11
2022-10-01T07:10:09.156Z,90.05
2022-10-01T07:12:36.785Z,90.31
2022-10-01T07:15:05.185Z,90.17
2022-10-01T07:17:32.360Z,89.92
2022-10-01T07:19:58.785Z,90.12
2022-10-01T07:22:25.201Z,90.29
2022-10-01T07:24:52.200Z,90.39
2022-10-01T07:27:19.704Z,90.54
2022-10-01T07:29:47.114Z,90.77
2022-10-01T07:32:13.746Z,90.71
2022-10-01T07:34:40.279Z,90.20
2022-10-01T07:37:07.899Z,90.41
2022-10-01T07:39:35.080Z,90.40
2022-10-01T07:42:03.141Z,90.67
2022-10-01T07:44:30.199Z,90.76
2022-10-01T07:46:56.939Z,91.00
2022-10-01T07:49:26.955Z,91.07
2022-10-01T07:51:54.646Z,90.65
2022-10-01T07:54:22.498Z,89.95
2022-10-01T07:56:52.011Z,89.87
2022-10-01T07:59:23.142Z,90.54
2022-10-01T08:01:51.681Z,90.53
2022-10-01T08:04:37.763Z,90.82
2022-10-01T08:07:05.302Z,91.14
2022-10-01T08:09:31.976Z,90.71
2022-10-01T08:11:58.545Z,90.31
2022-10-01T08:14:26.019Z,90.18
2022-10-01T08:16:55.851Z,89.70
2022-10-01T08:19:22.689Z,89.77
2022-10-01T08:21:49.108Z,89.09
2022-10-01T08:24:15.458Z,88.63
2022-10-01T08:26:41.922Z,88.22
2022-10-01T08:29:08.297Z,88.88
2022-10-01T08:31:35.467Z,89.45
2022-10-01T08:34:02.370Z,89.02
2022-10-01T08:36:28.752Z,89.62
2022-10-01T08:38:55.149Z,90.04
2022-10-01T08:41:41.655Z,90.14
2022-10-01T08:44:19.323Z,90.33
2022-10-01T08:46:46.429Z,90.34
2022-10-01T08:49:20.666Z,90.62
2022-10-01T08:52:03.605Z,90.42
2022-10-01T08:54:38.175Z,90.97
2022-10-01T08:57:13.365Z,91.24
2022-10-01T08:59:43.290Z,91.90
2022-10-01T09:02:32.089Z,91.57
2022-10-01T09:05:03.124Z,91.69
2022-10-01T09:07:51.251Z,91.54
2022-10-01T09:10:34.823Z,91.90
2022-10-01T09:13:39.679Z,92.34
2022-10-01T09:16:48.274Z,93.42
2022-10-01T09:19:27.209Z,93.44
2022-10-01T09:21:57.948Z,93.45
2022-10-01T09:24:25.072Z,92.78
2022-10-01T09:26:52.186Z,92.33
2022-10-01T09:29:39.248Z,92.56
2022-10-01T09:32:06.478Z,93.86
2022-10-01T09:34:37.478Z,94.64
2022-10-01T09:37:07.397Z,94.86
2022-10-01T09:40:01.854Z,95.14
2022-10-01T09:42:29.558Z,94.94
2022-10-01T09:44:57.406Z,95.15
2022-10-01T09:47:25.687Z,95.32
2022-10-01T09:49:52.439Z,95.73
2022-10-01T09:52:34.585Z,95.74
2022-10-01T09:55:03.963Z,95.64
2022-10-01T09:57:40.625Z,95.45
2022-10-01T10:00:19.442Z,95.19
2022-10-01T10:02:53.095Z,94.93
2022-10-01T10:05:24.330Z,94.55
2022-10-01T10:07:55.268Z,93.87
2022-10-01T10:10:36.861Z,93.67
2022-10-01T10:13:05.264Z,93.39
2022-10-01T10:15:33.207Z,93.22
2022-10-01T10:18:11.694Z,91.97
2022-10-01T10:20:41.845Z,92.46
2022-10-01T10:23:19.044Z,90.69
2022-10-01T10:26:01.078Z,91.45
2022-10-01T10:28:30.083Z,91.33
2022-10-01T10:30:57.684Z,90.98
2022-10-01T10:33:26.270Z,90.78
2022-10-01T10:36:05.600Z,91.00
2022-10-01T10:38:35.512Z,89.27
2022-10-01T10:41:03.794Z,88.73
2022-10-01T10:43:38.026Z,88.06
2022-10-01T10:46:04.636Z,85.90
2022-10-01T10:48:39.409Z,86.13
2022-10-01T10:51:09.329Z,84.01
2022-10-01T10:53:45.057Z,84.84
2022-10-01T10:56:23.087Z,83.33
2022-10-01T10:58:51.424Z,80.58
2022-10-01T11:01:28.394Z,76.69
2022-10-01T11:04:00.893Z,76.18
2022-10-01T11:06:27.848Z,73.93
2022-10-01T11:09:08.322Z,74.46
2022-10-01T11:11:49.878Z,74.52
2022-10-01T11:14:37.259Z,74.29
2022-10-01T11:17:59.267Z,74.79
2022-10-01T11:20:54.702Z,73.06
2022-10-01T11:23:53.508Z,74.95
2022-10-01T11:26:40.511Z,72.99
2022-10-01T11:29:25.147Z,72.91
2022-10-01T11:32:02.864Z,75.23
2022-10-01T11:34:50.464Z,75.34
2022-10-01T11:37:34.670Z,74.70
2022-10-01T11:40:13.071Z,73.38
2022-10-01T11:42:42.981Z,74.06
2022-10-01T11:45:22.368Z,72.55
2022-10-01T11:47:57.177Z,74.27
2022-10-01T11:50:34.182Z,74.25
2022-10-01T11:53:15.172Z,76.06
2022-10-01T11:56:05.335Z,74.73
2022-10-01T11:58:52.000Z,74.66
2022-10-01T12:01:30.053Z,74.53
2022-10-01T12:04:22.693Z,74.23
2022-10-01T12:07:09.258Z,73.67
2022-10-01T12:10:00.507Z,74.11
2022-10-01T12:12:37.071Z,73.41
2022-10-01T12:15:17.403Z,74.07
2022-10-01T12:17:47.343Z,74.58
2022-10-01T12:20:31.743Z,75.57
2022-10-01T12:23:00.362Z,74.94
2022-10-01T12:25:39.969Z,75.16
2022-10-01T12:29:01.722Z,75.12
2022-10-01T12:32:10.003Z,75.89
2022-10-01T12:34:54.376Z,75.36
2022-10-01T12:37:32.155Z,75.74
2022-10-01T12:40:13.723Z,75.10
2022-10-01T12:43:05.925Z,74.50
2022-10-01T12:45:44.285Z,74.88
2022-10-01T12:48:25.543Z,74.45
2022-10-01T12:50:56.093Z,74.16
2022-10-01T12:53:25.412Z,69.78
2022-10-01T12:56:00.959Z,68.91
2022-10-01T12:59:03.945Z,67.07
2022-10-01T13:01:43.242Z,65.17
2022-10-01T13:04:30.634Z,63.86
2022-10-01T13:07:02.810Z,60.60
2022-10-01T13:09:58.366Z,61.52
2022-10-01T13:13:07.807Z,61.45
2022-10-01T13:15:42.117Z,61.07
2022-10-01T13:18:45.569Z,62.66
2022-10-01T13:21:21.020Z,61.02
2022-10-01T13:23:57.377Z,64.29
2022-10-01T13:26:34.213Z,64.11
2022-10-01T13:29:39.547Z,64.59
2022-10-01T13:32:29.096Z,62.83
2022-10-01T13:34:56.784Z,62.64
2022-10-01T13:37:39.792Z,61.54
2022-10-01T13:40:31.083Z,59.46
2022-10-01T13:43:07.617Z,58.98
2022-10-01T13:45:37.079Z,61.88
2022-10-01T13:48:06.922Z,61.08
2022-10-01T13:50:33.976Z,61.68
2022-10-01T13:53:15.387Z,60.93
2022-10-01T13:55:44.481Z,61.05
2022-10-01T13:58:44.184Z,60.89
2022-10-01T14:01:21.365Z,60.57
2022-10-01T14:04:05.114Z,59.81
2022-10-01T14:06:34.597Z,59.10
2022-10-01T14:09:16.486Z,59.09
2022-10-01T14:12:05.942Z,61.65
2022-10-01T14:15:07.393Z,58.66
2022-10-01T14:17:36.108Z,60.10
2022-10-01T14:20:03.894Z,59.79
2022-10-01T14:22:33.352Z,58.70
2022-10-01T14:25:05.785Z,58.55
2022-10-01T14:27:56.239Z,59.94
2022-10-01T14:30:27.201Z,59.32
2022-10-01T14:33:28.680Z,59.25
2022-10-01T14:36:11.709Z,59.66
2022-10-01T14:38:38.148Z,59.05
2022-10-01T14:41:04.581Z,59.62
2022-10-01T14:43:32.599Z,59.78
2022-10-01T14:46:02.079Z,58.08
2022-10-01T14:48:31.614Z,57.99
2022-10-01T14:51:01.395Z,57.74
2022-10-01T14:53:30.406Z,58.64
2022-10-01T14:56:01.375Z,57.58
2022-10-01T14:58:35.597Z,57.22
2022-10-01T15:01:06.563Z,58.23
2022-10-01T15:03:41.279Z,57.71
2022-10-01T15:06:16.343Z,57.56
2022-10-01T15:08:45.189Z,58.64
2022-10-01T15:11:21.387Z,57.67
2022-10-01T15:13:51.089Z,57.21
2022-10-01T15:16:27.317Z,58.01
2022-10-01T15:19:02.611Z,58.17
2022-10-01T15:21:54.868Z,57.08
2022-10-01T15:24:41.769Z,58.12
2022-10-01T15:27:13.971Z,56.37
2022-10-01T15:29:42.584Z,55.45
2022-10-01T15:32:16.587Z,58.17
2022-10-01T15:34:48.243Z,57.41
2022-10-01T15:37:44.745Z,56.86
2022-10-01T15:40:28.660Z,57.49
2022-10-01T15:43:07.378Z,57.27
2022-10-01T15:45:34.628Z,58.07
2022-10-01T15:48:01.210Z,59.02
2022-10-01T15:50:32.356Z,58.30
2022-10-01T15:53:09.969Z,58.61
2022-10-01T15:55:49.348Z,58.86
2022-10-01T15:58:19.263Z,58.58
2022-10-01T16:00:57.935Z,58.69
2022-10-01T16:03:55.932Z,59.91
2022-10-01T16:06:50.118Z,60.45
2022-10-01T16:09:27.782Z,60.11
2022-10-01T16:11:57.421Z,61.24
2022-10-01T16:14:36.455Z,61.16
2022-10-01T16:17:22.959Z,62.12
2022-10-01T16:19:52.224Z,61.87
2022-10-01T16:22:24.858Z,61.01
2022-10-01T16:24:51.321Z,61.33
2022-10-01T16:27:23.933Z,60.89
2022-10-01T16:29:54.680Z,60.90
2022-10-01T16:32:21.208Z,60.74
2022-10-01T16:34:47.889Z,60.97
2022-10-01T16:37:15.316Z,61.69
2022-10-01T16:39:42.045Z,62.06
2022-10-01T16:42:23.680Z,61.46
2022-10-01T16:44:51.515Z,62.31
2022-10-01T16:47:17.950Z,63.38
2022-10-01T16:49:47.060Z,63.84
2022-10-01T16:52:15.490Z,65.17
2022-10-01T16:54:42.025Z,65.78
2022-10-01T16:57:08.434Z,65.61
2022-10-01T16:59:34.872Z,66.20
2022-10-01T17:02:02.264Z,66.64
2022-10-01T17:04:34.021Z,67.03
2022-10-01T17:07:00.984Z,66.60
2022-10-01T17:09:27.716Z,66.98
2022-10-01T17:11:54.720Z,67.36
2022-10-01T17:14:22.123Z,67.37
2022-10-01T17:16:50.535Z,67.68
2022-10-01T17:19:18.336Z,67.67
2022-10-01T17:21:46.064Z,67.48
2022-10-01T17:24:13.130Z,67.76
2022-10-01T17:26:40.933Z,67.17
2022-10-01T17:29:09.177Z,67.38
2022-10-01T17:31:37.373Z,67.05
2022-10-01T17:34:04.938Z,66.43
2022-10-01T17:36:32.537Z,66.30
2022-10-01T17:38:59.144Z,66.54
2022-10-01T17:41:25.563Z,66.56
2022-10-01T17:43:52.233Z,66.73
2022-10-01T17:46:18.811Z,66.26
2022-10-01T17:48:48.454Z,67.17
2022-10-01T17:51:17.768Z,67.20
2022-10-01T17:53:44.195Z,66.78
2022-10-01T17:57:38.335Z,66.69
2022-10-01T18:00:05.485Z,66.67
2022-10-01T18:02:47.038Z,67.00
2022-10-01T18:05:14.914Z,67.24
2022-10-01T18:07:42.689Z,67.42
2022-10-01T18:10:12.177Z,67.71
2022-10-01T18:12:38.782Z,67.93
2022-10-01T18:15:05.676Z,68.23
2022-10-01T18:17:33.169Z,68.42
2022-10-01T18:19:59.755Z,68.63
2022-10-01T18:22:28.066Z,68.93
2022-10-01T18:24:54.900Z,69.40
2022-10-01T18:27:21.455Z,69.80
2022-10-01T18:29:48.015Z,69.77
2022-10-01T18:32:22.150Z,70.02
2022-10-01T18:34:55.986Z,70.65
2022-10-01T18:37:30.011Z,70.92
2022-10-01T18:40:06.630Z,71.16
2022-10-01T18:43:03.679Z,70.43
2022-10-01T18:45:48.061Z,70.86
2022-10-01T18:48:36.462Z,71.14
2022-10-01T18:51:08.695Z,71.31
2022-10-01T18:53:41.200Z,71.17
2022-10-01T18:56:29.477Z,71.54
2022-10-01T18:59:14.733Z,71.35
2022-10-01T19:02:20.586Z,71.79
2022-10-01T19:04:57.714Z,72.46
2022-10-01T19:07:59.515Z,72.47
2022-10-01T19:10:39.166Z,73.08
2022-10-01T19:13:38.566Z,73.34
2022-10-01T19:16:21.725Z,73.47
2022-10-01T19:18:57.121Z,73.92
2022-10-01T19:21:44.967Z,74.65
2022-10-01T19:24:29.976Z,74.33
2022-10-01T19:27:05.446Z,74.91
2022-10-01T19:29:47.275Z,74.95
2022-10-01T19:32:19.572Z,75.27
2022-10-01T19:35:13.525Z,75.66
2022-10-01T19:37:47.015Z,75.37
2022-10-01T19:40:13.359Z,75.69
2022-10-01T19:42:44.905Z,75.91
2022-10-01T19:45:14.400Z,76.50
2022-10-01T19:47:45.913Z,76.10
2022-10-01T19:50:43.637Z,76.42
2022-10-01T19:53:22.844Z,76.58
2022-10-01T19:55:51.736Z,76.56
2022-10-01T19:58:20.282Z,76.75
2022-10-01T20:00:52.414Z,77.05
2022-10-01T20:03:39.202Z,77.19
2022-10-01T20:06:20.763Z,76.94
2022-10-01T20:08:55.373Z,77.20
2022-10-01T20:11:30.223Z,77.01
2022-10-01T20:14:36.344Z,77.43
2022-10-01T20:17:14.933Z,76.99
2022-10-01T20:19:41.365Z,77.08
2022-10-01T20:22:15.111Z,77.08
2022-10-01T20:24:49.086Z,76.43
2022-10-01T20:27:30.237Z,76.38
2022-10-01T20:30:11.929Z,76.90
2022-10-01T20:33:01.522Z,77.09
2022-10-01T20:35:52.801Z,76.43
2022-10-01T20:38:28.945Z,76.08
2022-10-01T20:40:58.408Z,76.18
2022-10-01T20:43:37.599Z,75.22
2022-10-01T20:46:13.132Z,75.51
2022-10-01T20:48:44.666Z,75.71
2022-10-01T20:51:30.632Z,75.64
2022-10-01T20:54:08.668Z,75.80
2022-10-01T20:56:41.656Z,75.59
2022-10-01T20:59:23.378Z,75.33
2022-10-01T21:02:04.160Z,75.64
2022-10-01T21:04:37.503Z,75.10
2022-10-01T21:07:24.673Z,75.24
2022-10-01T21:09:54.943Z,75.97
2022-10-01T21:12:31.506Z,75.61
2022-10-01T21:15:01.192Z,75.97
2022-10-01T21:17:27.539Z,76.31
2022-10-01T21:20:09.986Z,76.72
2022-10-01T21:23:04.419Z,76.05
2022-10-01T21:26:00.221Z,76.64
2022-10-01T21:29:07.719Z,76.34
2022-10-01T21:31:55.615Z,75.55
2022-10-01T21:34:40.666Z,75.61
2022-10-01T21:37:16.409Z,75.56
2022-10-01T21:39:56.854Z,75.62
2022-10-01T21:42:38.888Z,75.88
2022-10-01T21:45:33.549Z,76.47
2022-10-01T21:48:16.156Z,76.68
2022-10-01T21:50:53.458Z,76.39
2022-10-01T21:53:52.624Z,76.17
2022-10-01T21:56:47.787Z,76.73
2022-10-01T21:59:51.806Z,77.02
2022-10-01T22:02:43.275Z,77.84
2022-10-01T22:05:29.591Z,78.14
2022-10-01T22:08:17.407Z,77.94
2022-10-01T22:10:50.611Z,78.51
2022-10-01T22:13:23.464Z,78.57
2022-10-01T22:15:54.219Z,78.31
2022-10-01T22:18:33.781Z,77.99
2022-10-01T22:21:03.053Z,78.39
2022-10-01T22:23:33.793Z,78.34
2022-10-01T22:26:05.886Z,77.95
2022-10-01T22:28:38.907Z,78.30
2022-10-01T22:31:09.056Z,78.17
2022-10-01T22:33:43.913Z,78.31
2022-10-01T22:36:22.407Z,78.52
2022-10-01T22:38:54.015Z,78.11
2022-10-01T22:41:36.911Z,78.33
2022-10-01T22:44:16.319Z,78.81
2022-10-01T22:47:03.309Z,78.76
2022-10-01T22:49:31.402Z,79.06
2022-10-01T22:52:23.880Z,79.29
2022-10-01T22:55:18.846Z,79.52
2022-10-01T22:58:05.380Z,79.67
2022-10-01T23:00:39.087Z,80.16
2022-10-01T23:03:11.306Z,80.42
2022-10-01T23:06:24.867Z,80.20
2022-10-01T23:08:57.351Z,80.68
2022-10-01T23:11:36.564Z,80.61
2022-10-01T23:14:41.420Z,80.92
2022-10-01T23:17:20.790Z,81.06
2022-10-01T23:19:59.362Z,81.21
2022-10-01T23:23:16.773Z,81.76
2022-10-01T23:25:58.688Z,81.76
2022-10-01T23:28:36.803Z,81.73
2022-10-01T23:31:28.756Z,81.97
2022-10-01T23:34:27.456Z,82.07
2022-10-01T23:37:06.925Z,81.96
2022-10-01T23:39:49.797Z,82.13
2022-10-01T23:42:29.241Z,82.57
2022-10-01T23:45:13.745Z,82.69
2022-10-01T23:47:53.052Z,83.15
2022-10-01T23:50:32.667Z,83.37
2022-10-01T23:53:13.872Z,83.40
2022-10-01T23:56:19.371Z,83.46
